Time;durP1;ratioP1;P1;durP2;ratioP2;P2;SDS_P1;SDS_P2;PMS_P1;PMS_P2;Temp;Humidity;BMP_temperature;BMP_pressure;BME280_temperature;BME280_humidity;BME280_pressure;Samples;Min_cycle;Max_cycle;Signal;HPM_P1;HPM_P2
2024/04/16 00:01:24;;;;;;;30.60;28.30;;;;;;;;;;5525481;25;20244;-77
2024/04/16 00:03:52;;;;;;;27.10;25.05;;;;;;;;;;5525108;25;20810;-76
2024/04/16 00:06:21;;;;;;;28.60;27.00;;;;;;;;;;5524998;25;20239;-76
2024/04/16 00:08:48;;;;;;;32.10;30.00;;;;;;;;;;5524419;25;20438;-76
2024/04/16 00:11:16;;;;;;;33.53;31.30;;;;;;;;;;5524832;25;20484;-75
2024/04/16 00:13:42;;;;;;;28.40;26.77;;;;;;;;;;5525215;25;20434;-76
2024/04/16 00:16:11;;;;;;;27.23;25.63;;;;;;;;;;5524876;25;20436;-76
2024/04/16 00:18:37;;;;;;;27.67;25.97;;;;;;;;;;5524305;25;20433;-76
2024/04/16 00:21:08;;;;;;;28.92;27.15;;;;;;;;;;5524901;25;20435;-76
2024/04/16 00:23:34;;;;;;;29.92;28.13;;;;;;;;;;5525492;25;20275;-76
2024/04/16 00:26:03;;;;;;;32.10;30.23;;;;;;;;;;5524795;25;20233;-75
2024/04/16 00:28:29;;;;;;;32.95;30.73;;;;;;;;;;5523330;25;20533;-76
2024/04/16 00:30:58;;;;;;;28.88;27.38;;;;;;;;;;5524485;25;20229;-77
2024/04/16 00:33:24;;;;;;;31.13;29.60;;;;;;;;;;5524931;25;20685;-76
2024/04/16 00:35:52;;;;;;;30.60;28.45;;;;;;;;;;5524546;25;20485;-76
2024/04/16 00:38:22;;;;;;;45.97;43.47;;;;;;;;;;5524169;25;20814;-77
2024/04/16 00:40:51;;;;;;;34.17;31.73;;;;;;;;;;5524685;25;20569;-75
2024/04/16 00:43:17;;;;;;;47.47;44.83;;;;;;;;;;5525035;25;20465;-76
2024/04/16 00:45:48;;;;;;;44.65;41.88;;;;;;;;;;5525297;25;20452;-76
2024/04/16 00:48:15;;;;;;;39.58;37.47;;;;;;;;;;5523770;25;20228;-76
2024/04/16 00:50:43;;;;;;;39.40;37.20;;;;;;;;;;5524398;25;20229;-75
2024/04/16 00:53:10;;;;;;;37.67;35.47;;;;;;;;;;5522763;25;20464;-76
2024/04/16 00:55:41;;;;;;;41.27;38.67;;;;;;;;;;5524135;25;20259;-76
2024/04/16 00:58:08;;;;;;;57.90;54.92;;;;;;;;;;5523512;25;20442;-76
2024/04/16 01:00:37;;;;;;;57.40;54.10;;;;;;;;;;5524642;25;20233;-76
2024/04/16 01:03:03;;;;;;;40.28;37.75;;;;;;;;;;5524012;25;20502;-76
2024/04/16 01:05:32;;;;;;;42.42;39.63;;;;;;;;;;5524391;25;20728;-75
2024/04/16 01:07:58;;;;;;;41.15;38.78;;;;;;;;;;5523971;25;20228;-76
2024/04/16 01:10:27;;;;;;;42.25;39.95;;;;;;;;;;5523565;25;20271;-76
2024/04/16 01:12:55;;;;;;;43.57;40.53;;;;;;;;;;5524068;25;20231;-75
2024/04/16 01:15:24;;;;;;;42.80;40.15;;;;;;;;;;5524403;25;20945;-76
2024/04/16 01:17:50;;;;;;;56.53;53.58;;;;;;;;;;5524500;25;20733;-77
2024/04/16 01:20:19;;;;;;;48.60;45.30;;;;;;;;;;5523807;25;20268;-76
2024/04/16 01:22:50;;;;;;;48.70;45.47;;;;;;;;;;5523826;25;20291;-75
2024/04/16 01:25:19;;;;;;;48.10;44.72;;;;;;;;;;5524203;25;20491;-75
2024/04/16 01:27:45;;;;;;;45.63;42.60;;;;;;;;;;5524409;25;20229;-76
2024/04/16 01:30:14;;;;;;;49.15;45.95;;;;;;;;;;5523470;25;20562;-75
2024/04/16 01:32:40;;;;;;;43.50;40.90;;;;;;;;;;5524128;25;21068;-74
2024/04/16 01:35:10;;;;;;;42.08;39.47;;;;;;;;;;5524192;25;20458;-74
2024/04/16 01:37:36;;;;;;;43.08;40.63;;;;;;;;;;5523941;25;20259;-76
2024/04/16 01:40:08;;;;;;;42.03;39.47;;;;;;;;;;5523541;25;20715;-75
2024/04/16 01:42:34;;;;;;;46.50;43.60;;;;;;;;;;5523146;25;20300;-75
2024/04/16 01:45:03;;;;;;;48.13;43.83;;;;;;;;;;5523511;25;20509;-76
2024/04/16 01:47:29;;;;;;;45.45;42.33;;;;;;;;;;5523850;25;20296;-76
2024/04/16 01:49:57;;;;;;;40.35;38.00;;;;;;;;;;5522912;25;20310;-75
2024/04/16 01:52:23;;;;;;;37.77;35.70;;;;;;;;;;5521673;25;20299;-75
2024/04/16 01:54:52;;;;;;;37.42;35.25;;;;;;;;;;5522898;26;20468;-75
2024/04/16 01:57:21;;;;;;;36.33;33.10;;;;;;;;;;5523848;26;20229;-76
2024/04/16 01:59:50;;;;;;;38.88;36.03;;;;;;;;;;5523367;26;20461;-76
2024/04/16 02:02:16;;;;;;;37.45;34.40;;;;;;;;;;5523434;25;20232;-75
2024/04/16 02:04:44;;;;;;;39.13;36.45;;;;;;;;;;5522608;25;20228;-76
2024/04/16 02:07:11;;;;;;;35.60;33.30;;;;;;;;;;5523531;26;20308;-76
2024/04/16 02:09:39;;;;;;;33.37;31.57;;;;;;;;;;5522872;26;20574;-76
2024/04/16 02:12:06;;;;;;;32.67;30.60;;;;;;;;;;5524027;25;20530;-76
2024/04/16 02:14:37;;;;;;;28.48;26.95;;;;;;;;;;5522628;25;20440;-75
2024/04/16 02:17:03;;;;;;;29.30;27.48;;;;;;;;;;5523441;26;20228;-75
2024/04/16 02:19:32;;;;;;;30.65;28.73;;;;;;;;;;5522733;26;20236;-75
2024/04/16 02:21:58;;;;;;;29.37;27.87;;;;;;;;;;5523151;25;20621;-76
2024/04/16 02:24:27;;;;;;;32.30;30.00;;;;;;;;;;5523414;26;20473;-75
2024/04/16 02:26:53;;;;;;;31.17;29.00;;;;;;;;;;5523096;26;20493;-76
2024/04/16 02:29:21;;;;;;;29.42;27.83;;;;;;;;;;5522669;26;20441;-75
2024/04/16 02:31:50;;;;;;;30.07;28.47;;;;;;;;;;5523280;25;20241;-74
2024/04/16 02:34:19;;;;;;;29.53;27.77;;;;;;;;;;5523035;25;20445;-75
2024/04/16 02:36:45;;;;;;;31.50;29.47;;;;;;;;;;5523032;26;20491;-75
2024/04/16 02:39:13;;;;;;;30.58;28.63;;;;;;;;;;5522750;26;20464;-76
2024/04/16 02:41:39;;;;;;;30.00;28.23;;;;;;;;;;5522333;25;20302;-75
2024/04/16 02:44:08;;;;;;;28.60;27.00;;;;;;;;;;5522461;26;20232;-75
2024/04/16 02:46:34;;;;;;;28.30;26.80;;;;;;;;;;5522597;26;20224;-75
2024/04/16 02:49:05;;;;;;;29.03;27.23;;;;;;;;;;5521773;26;20549;-76
2024/04/16 02:51:31;;;;;;;28.48;26.75;;;;;;;;;;5522894;25;21177;-76
2024/04/16 02:54:00;;;;;;;33.65;30.92;;;;;;;;;;5522727;26;20612;-75
2024/04/16 02:56:26;;;;;;;29.05;27.23;;;;;;;;;;5522371;26;20223;-76
2024/04/16 02:58:54;;;;;;;28.83;27.10;;;;;;;;;;5521905;26;20974;-75
2024/04/16 03:01:21;;;;;;;26.75;25.45;;;;;;;;;;5521892;25;20715;-75
2024/04/16 03:03:49;;;;;;;25.33;23.87;;;;;;;;;;5522772;26;20349;-74
2024/04/16 03:06:18;;;;;;;24.92;23.40;;;;;;;;;;5522728;26;20453;-76
2024/04/16 03:08:47;;;;;;;24.52;23.15;;;;;;;;;;5522092;26;20275;-75
2024/04/16 03:11:13;;;;;;;26.60;25.03;;;;;;;;;;5522560;25;20282;-75
2024/04/16 03:13:41;;;;;;;26.77;25.23;;;;;;;;;;5522422;26;20516;-75
2024/04/16 03:16:07;;;;;;;26.37;24.77;;;;;;;;;;5522558;25;20514;-75
2024/04/16 03:18:36;;;;;;;22.53;21.37;;;;;;;;;;5525880;26;20475;-77
2024/04/16 03:21:02;;;;;;;25.10;23.25;;;;;;;;;;5525896;25;20493;-75
2024/04/16 03:23:33;;;;;;;25.20;23.58;;;;;;;;;;5525808;25;20267;-75
2024/04/16 03:26:02;;;;;;;26.92;24.40;;;;;;;;;;5526266;26;20381;-76
2024/04/16 03:28:30;;;;;;;23.95;22.65;;;;;;;;;;5525309;26;20270;-76
2024/04/16 03:30:56;;;;;;;26.65;24.05;;;;;;;;;;5525924;25;20276;-75
2024/04/16 03:33:25;;;;;;;24.98;23.33;;;;;;;;;;5526009;26;20712;-76
2024/04/16 03:35:54;;;;;;;24.40;22.70;;;;;;;;;;5525662;26;20261;-77
2024/04/16 03:38:23;;;;;;;25.35;23.55;;;;;;;;;;5524907;26;20256;-76
2024/04/16 03:40:58;;;;;;;22.08;20.75;;;;;;;;;;5525807;25;20255;-76
2024/04/16 03:43:27;;;;;;;21.75;20.30;;;;;;;;;;5525453;25;20234;-76
2024/04/16 03:45:53;;;;;;;23.23;21.43;;;;;;;;;;5525419;26;20229;-76
2024/04/16 03:48:21;;;;;;;20.40;19.00;;;;;;;;;;5525461;26;20457;-75
2024/04/16 03:50:47;;;;;;;20.63;19.17;;;;;;;;;;5525035;25;20858;-75
2024/04/16 03:53:16;;;;;;;19.90;18.90;;;;;;;;;;5524699;25;20253;-75
2024/04/16 03:55:42;;;;;;;18.95;18.02;;;;;;;;;;5525382;26;20491;-75
2024/04/16 03:58:13;;;;;;;21.70;20.10;;;;;;;;;;5524645;25;20342;-76
2024/04/16 04:03:27;;;;;;;20.70;19.50;;;;;;;;;;5527967;26;20256;-76
2024/04/16 04:05:55;;;;;;;79.23;34.50;;;;;;;;;;5524625;26;20441;-76
2024/04/16 04:08:22;;;;;;;20.20;18.70;;;;;;;;;;5524228;26;20461;-76
2024/04/16 04:10:50;;;;;;;19.48;18.48;;;;;;;;;;5524792;25;20568;-77
2024/04/16 04:13:19;;;;;;;19.50;18.20;;;;;;;;;;5525541;26;20258;-75
2024/04/16 04:15:47;;;;;;;18.70;17.60;;;;;;;;;;5525058;26;20224;-75
2024/04/16 04:18:13;;;;;;;22.42;20.55;;;;;;;;;;5524603;26;20484;-74
2024/04/16 04:20:46;;;;;;;19.57;18.27;;;;;;;;;;5524464;26;20224;-75
2024/04/16 04:23:12;;;;;;;19.88;18.77;;;;;;;;;;5524773;26;20457;-75
2024/04/16 04:25:40;;;;;;;19.27;18.17;;;;;;;;;;5525159;26;20261;-73
2024/04/16 04:28:06;;;;;;;19.53;18.33;;;;;;;;;;5522847;26;20271;-75
2024/04/16 04:30:38;;;;;;;19.10;17.80;;;;;;;;;;5522390;25;20541;-74
2024/04/16 04:33:04;;;;;;;19.50;18.17;;;;;;;;;;5487682;26;20944;-73
2024/04/16 04:35:32;;;;;;;19.53;18.30;;;;;;;;;;5487707;26;20347;-73
2024/04/16 04:37:59;;;;;;;18.17;17.27;;;;;;;;;;5487261;26;20539;-74
2024/04/16 04:40:27;;;;;;;18.85;17.67;;;;;;;;;;5486801;26;20780;-75
2024/04/16 04:42:55;;;;;;;18.10;17.00;;;;;;;;;;5486987;26;20237;-75
2024/04/16 04:45:23;;;;;;;20.23;19.00;;;;;;;;;;5487505;26;20548;-75
2024/04/16 04:47:52;;;;;;;17.67;16.77;;;;;;;;;;5487031;26;20271;-74
2024/04/16 04:50:20;;;;;;;19.13;18.00;;;;;;;;;;5486664;26;20231;-74
2024/04/16 04:52:47;;;;;;;18.90;17.40;;;;;;;;;;5486943;26;20497;-74
2024/04/16 04:55:15;;;;;;;19.53;18.33;;;;;;;;;;5487170;26;20463;-75
2024/04/16 04:57:41;;;;;;;21.02;19.23;;;;;;;;;;5487351;26;20459;-74
2024/04/16 05:00:11;;;;;;;18.73;17.73;;;;;;;;;;5485934;26;20245;-73
2024/04/16 05:02:37;;;;;;;19.67;18.40;;;;;;;;;;5487071;26;20502;-74
2024/04/16 05:05:08;;;;;;;19.10;18.00;;;;;;;;;;5504031;26;20549;-73
2024/04/16 05:07:34;;;;;;;19.23;18.13;;;;;;;;;;5519458;25;20754;-74
2024/04/16 05:10:03;;;;;;;18.60;17.47;;;;;;;;;;5514012;25;20731;-73
2024/04/16 05:12:32;;;;;;;18.85;17.52;;;;;;;;;;5524005;25;20553;-74
2024/04/16 05:14:58;;;;;;;19.92;18.73;;;;;;;;;;5523435;25;20712;-74
2024/04/16 05:17:27;;;;;;;18.13;17.23;;;;;;;;;;5523228;25;20236;-74
2024/04/16 05:19:53;;;;;;;20.17;18.75;;;;;;;;;;5522570;25;20240;-74
2024/04/16 05:22:24;;;;;;;20.67;18.87;;;;;;;;;;5523069;25;20937;-74
2024/04/16 05:24:53;;;;;;;20.90;19.43;;;;;;;;;;5524017;25;20441;-74
2024/04/16 05:27:19;;;;;;;18.87;17.87;;;;;;;;;;5523425;25;20461;-73
2024/04/16 05:29:47;;;;;;;17.83;16.92;;;;;;;;;;5522936;25;20496;-74
2024/04/16 05:32:14;;;;;;;18.10;17.20;;;;;;;;;;5523134;25;20283;-74
2024/04/16 05:34:44;;;;;;;20.60;19.38;;;;;;;;;;5523471;25;20232;-74
2024/04/16 05:37:10;;;;;;;18.25;17.35;;;;;;;;;;5524019;25;20229;-75
2024/04/16 05:39:42;;;;;;;18.10;17.17;;;;;;;;;;5521939;25;20253;-75
2024/04/16 05:42:08;;;;;;;18.80;17.70;;;;;;;;;;5522621;25;20670;-74
2024/04/16 05:44:37;;;;;;;19.37;18.27;;;;;;;;;;5513052;26;20498;-73
2024/04/16 05:47:03;;;;;;;17.73;16.83;;;;;;;;;;5509553;26;20442;-73
2024/04/16 05:49:32;;;;;;;18.73;17.53;;;;;;;;;;5522887;25;20578;-76
2024/04/16 05:51:58;;;;;;;19.10;17.90;;;;;;;;;;5486214;26;20452;-75
2024/04/16 05:54:28;;;;;;;20.07;18.90;;;;;;;;;;5486557;26;20471;-74
2024/04/16 05:56:56;;;;;;;19.67;18.30;;;;;;;;;;5497014;26;21054;-76
2024/04/16 05:59:25;;;;;;;20.87;19.33;;;;;;;;;;5507785;26;20660;-75
2024/04/16 06:01:51;;;;;;;19.65;18.65;;;;;;;;;;5505668;25;20513;-74
2024/04/16 06:04:19;;;;;;;20.17;18.85;;;;;;;;;;5485898;26;20279;-75
2024/04/16 06:06:45;;;;;;;20.53;18.90;;;;;;;;;;5485907;26;20231;-74
2024/04/16 06:09:14;;;;;;;21.83;20.23;;;;;;;;;;5485511;26;20799;-74
2024/04/16 06:11:40;;;;;;;18.60;17.40;;;;;;;;;;5485607;26;20486;-75
2024/04/16 06:14:11;;;;;;;18.50;17.40;;;;;;;;;;5503334;25;20478;-73
2024/04/16 06:16:40;;;;;;;19.70;18.50;;;;;;;;;;5486511;26;20439;-74
2024/04/16 06:19:06;;;;;;;20.10;18.87;;;;;;;;;;5485159;26;21062;-74
2024/04/16 06:21:34;;;;;;;20.97;19.70;;;;;;;;;;5486370;26;20470;-74
2024/04/16 06:24:00;;;;;;;19.07;18.07;;;;;;;;;;5486309;26;20525;-74
2024/04/16 06:26:29;;;;;;;20.07;18.77;;;;;;;;;;5497362;25;20458;-73
2024/04/16 06:28:55;;;;;;;19.53;18.50;;;;;;;;;;5521834;25;20532;-73
2024/04/16 06:31:27;;;;;;;18.40;17.47;;;;;;;;;;5510567;25;20768;-74
2024/04/16 06:33:53;;;;;;;20.00;18.80;;;;;;;;;;5485799;26;20469;-74
2024/04/16 06:36:21;;;;;;;21.70;20.27;;;;;;;;;;5486303;26;20436;-74
2024/04/16 06:38:47;;;;;;;20.83;19.63;;;;;;;;;;5485235;26;20437;-74
2024/04/16 06:41:16;;;;;;;18.27;17.37;;;;;;;;;;5494308;25;20474;-75
2024/04/16 06:43:42;;;;;;;19.13;18.00;;;;;;;;;;5515397;25;20478;-75
2024/04/16 06:46:10;;;;;;;21.40;19.90;;;;;;;;;;5485314;26;20431;-73
2024/04/16 06:48:39;;;;;;;20.17;18.87;;;;;;;;;;5485205;26;20275;-73
2024/04/16 06:51:08;;;;;;;19.60;18.50;;;;;;;;;;5486650;26;20536;-75
2024/04/16 06:53:34;;;;;;;20.00;18.90;;;;;;;;;;5484757;26;20957;-74
2024/04/16 06:56:03;;;;;;;20.43;19.23;;;;;;;;;;5485519;26;20469;-74
2024/04/16 06:58:29;;;;;;;18.03;17.00;;;;;;;;;;5484560;26;20435;-74
2024/04/16 07:00:58;;;;;;;19.17;17.73;;;;;;;;;;5485366;26;20572;-73
2024/04/16 07:03:24;;;;;;;19.80;18.80;;;;;;;;;;5485357;26;20519;-73
2024/04/16 07:05:55;;;;;;;18.63;17.37;;;;;;;;;;5485336;26;20497;-74
2024/04/16 07:08:22;;;;;;;18.90;17.80;;;;;;;;;;5484598;26;20978;-73
2024/04/16 07:10:52;;;;;;;20.07;18.73;;;;;;;;;;5484644;26;20463;-74
2024/04/16 07:13:20;;;;;;;19.53;18.30;;;;;;;;;;5485105;26;20508;-73
2024/04/16 07:15:46;;;;;;;19.03;18.03;;;;;;;;;;5484839;26;20822;-73
2024/04/16 07:18:15;;;;;;;18.60;17.60;;;;;;;;;;5491976;25;20582;-72
2024/04/16 07:20:46;;;;;;;19.80;18.70;;;;;;;;;;5492326;26;20453;-73
2024/04/16 07:23:17;;;;;;;19.30;18.20;;;;;;;;;;5497626;26;20439;-72
2024/04/16 07:25:44;;;;;;;19.30;18.10;;;;;;;;;;5514364;26;20456;-74
2024/04/16 07:28:13;;;;;;;18.80;17.80;;;;;;;;;;5499841;26;20440;-74
2024/04/16 07:30:39;;;;;;;19.60;18.50;;;;;;;;;;5521281;25;20435;-75
2024/04/16 07:33:09;;;;;;;19.60;18.40;;;;;;;;;;5502796;25;20563;-73
2024/04/16 07:35:35;;;;;;;20.10;18.83;;;;;;;;;;5484382;26;20529;-74
2024/04/16 07:38:03;;;;;;;20.20;19.00;;;;;;;;;;5485729;26;20535;-75
2024/04/16 07:40:32;;;;;;;19.60;18.40;;;;;;;;;;5485461;26;20464;-74
2024/04/16 07:43:01;;;;;;;18.87;17.87;;;;;;;;;;5485769;26;20479;-73
2024/04/16 07:45:27;;;;;;;19.57;18.57;;;;;;;;;;5485615;26;20455;-74
2024/04/16 07:47:55;;;;;;;19.70;18.53;;;;;;;;;;5485785;26;20443;-74
2024/04/16 07:50:21;;;;;;;19.00;17.70;;;;;;;;;;5484830;26;20511;-75
2024/04/16 07:52:50;;;;;;;23.37;21.73;;;;;;;;;;5484943;26;20467;-74
2024/04/16 07:55:16;;;;;;;18.10;17.10;;;;;;;;;;5485379;26;20509;-75
2024/04/16 07:57:47;;;;;;;18.47;17.57;;;;;;;;;;5485303;26;20467;-75
2024/04/16 08:00:14;;;;;;;20.80;19.50;;;;;;;;;;5484923;26;20827;-74
2024/04/16 08:02:42;;;;;;;20.40;19.20;;;;;;;;;;5485226;26;20501;-75
2024/04/16 08:05:11;;;;;;;21.73;20.00;;;;;;;;;;5488741;26;20469;-75
2024/04/16 08:07:37;;;;;;;22.77;21.17;;;;;;;;;;5489326;26;21034;-74
2024/04/16 08:10:06;;;;;;;22.43;21.13;;;;;;;;;;5488260;26;20504;-75
2024/04/16 08:12:32;;;;;;;21.13;19.73;;;;;;;;;;5488790;26;20530;-74
2024/04/16 08:15:04;;;;;;;21.83;20.43;;;;;;;;;;5488917;26;20522;-75
2024/04/16 08:17:32;;;;;;;23.33;21.43;;;;;;;;;;5488926;26;20440;-74
2024/04/16 08:20:00;;;;;;;21.57;20.23;;;;;;;;;;5488604;26;20475;-74
2024/04/16 08:22:32;;;;;;;20.83;19.70;;;;;;;;;;5488321;26;20532;-74
2024/04/16 08:25:01;;;;;;;23.90;22.20;;;;;;;;;;5488939;26;20463;-75
2024/04/16 08:27:27;;;;;;;21.27;20.17;;;;;;;;;;5488640;26;20466;-75
2024/04/16 08:29:56;;;;;;;24.00;22.57;;;;;;;;;;5487741;26;20435;-74
2024/04/16 08:32:25;;;;;;;25.20;23.50;;;;;;;;;;5487894;26;20458;-74
2024/04/16 08:34:53;;;;;;;24.93;23.47;;;;;;;;;;5488688;26;20519;-74
2024/04/16 08:37:19;;;;;;;23.93;22.57;;;;;;;;;;5505330;26;20992;-74
2024/04/16 08:39:48;;;;;;;25.30;23.90;;;;;;;;;;5524674;26;20476;-75
2024/04/16 08:42:15;;;;;;;28.90;27.07;;;;;;;;;;5519441;25;20477;-74
2024/04/16 08:44:44;;;;;;;30.10;28.50;;;;;;;;;;5516010;26;20466;-74
2024/04/16 08:47:10;;;;;;;33.83;32.13;;;;;;;;;;5523890;25;20437;-80
2024/04/16 08:49:44;;;;;;;35.15;33.17;;;;;;;;;;5524275;26;20444;-79
2024/04/16 08:52:11;;;;;;;37.30;34.97;;;;;;;;;;5525847;25;20340;-80
2024/04/16 08:54:40;;;;;;;36.70;34.50;;;;;;;;;;5525964;26;20225;-78
2024/04/16 08:57:06;;;;;;;37.60;35.50;;;;;;;;;;5525093;25;20489;-78
2024/04/16 08:59:35;;;;;;;40.93;37.83;;;;;;;;;;5523572;25;20228;-75
2024/04/16 09:02:01;;;;;;;47.57;45.07;;;;;;;;;;5523000;25;20461;-73
2024/04/16 09:04:31;;;;;;;47.73;45.13;;;;;;;;;;5522182;26;20477;-74
2024/04/16 09:07:01;;;;;;;54.00;51.13;;;;;;;;;;5523371;25;20430;-75
2024/04/16 09:09:29;;;;;;;48.93;46.17;;;;;;;;;;5496380;25;20544;-74
2024/04/16 09:11:56;;;;;;;43.40;41.10;;;;;;;;;;5510022;25;20454;-74
2024/04/16 09:14:25;;;;;;;45.90;43.40;;;;;;;;;;5513940;25;20789;-73
2024/04/16 09:16:51;;;;;;;44.33;41.73;;;;;;;;;;5495954;26;20797;-74
2024/04/16 09:19:26;;;;;;;43.43;41.13;;;;;;;;;;5486100;26;20560;-73
2024/04/16 09:21:52;;;;;;;44.42;42.03;;;;;;;;;;5492497;25;20574;-74
2024/04/16 09:24:25;;;;;;;42.53;40.23;;;;;;;;;;5520467;25;20264;-73
2024/04/16 09:26:51;;;;;;;49.00;46.60;;;;;;;;;;5519516;26;20449;-75
2024/04/16 09:29:26;;;;;;;38.63;36.63;;;;;;;;;;5510919;25;20526;-73
2024/04/16 09:31:58;;;;;;;38.30;36.20;;;;;;;;;;5510298;26;20509;-75
2024/04/16 09:34:27;;;;;;;46.60;44.10;;;;;;;;;;5519828;25;20832;-74
2024/04/16 09:36:53;;;;;;;43.60;41.50;;;;;;;;;;5521964;26;20543;-74
2024/04/16 09:39:22;;;;;;;43.57;41.43;;;;;;;;;;5521218;26;20290;-75
2024/04/16 09:41:52;;;;;;;38.97;36.97;;;;;;;;;;5511620;25;20498;-74
2024/04/16 09:44:21;;;;;;;37.03;35.13;;;;;;;;;;5509570;26;20436;-73
2024/04/16 09:46:48;;;;;;;39.00;37.00;;;;;;;;;;5521501;25;21273;-75
2024/04/16 09:49:17;;;;;;;36.50;34.70;;;;;;;;;;5522183;26;20450;-75
2024/04/16 09:51:44;;;;;;;37.33;35.53;;;;;;;;;;5514687;25;20505;-75
2024/04/16 09:54:15;;;;;;;37.00;35.20;;;;;;;;;;5522123;26;20434;-74
2024/04/16 09:56:41;;;;;;;38.55;36.17;;;;;;;;;;5522590;25;20470;-73
2024/04/16 09:59:14;;;;;;;46.50;44.10;;;;;;;;;;5521974;25;20235;-75
2024/04/16 10:01:41;;;;;;;49.13;46.72;;;;;;;;;;5522550;25;20480;-74
2024/04/16 10:04:10;;;;;;;46.20;44.00;;;;;;;;;;5522969;26;20231;-74
2024/04/16 10:06:36;;;;;;;48.83;46.45;;;;;;;;;;5522604;26;20461;-73
2024/04/16 10:09:05;;;;;;;44.90;42.70;;;;;;;;;;5489919;26;20234;-73
2024/04/16 10:11:32;;;;;;;39.35;37.45;;;;;;;;;;5493963;26;20445;-74
2024/04/16 10:14:01;;;;;;;39.97;37.77;;;;;;;;;;5523352;25;20340;-73
2024/04/16 10:16:33;;;;;;;43.30;41.13;;;;;;;;;;5516747;25;20459;-75
2024/04/16 10:19:02;;;;;;;40.23;38.33;;;;;;;;;;5485727;26;20442;-74
2024/04/16 10:21:28;;;;;;;41.23;39.33;;;;;;;;;;5513386;25;20529;-75
2024/04/16 10:24:03;;;;;;;40.63;38.70;;;;;;;;;;5523113;25;20441;-75
2024/04/16 10:26:30;;;;;;;38.60;36.50;;;;;;;;;;5517563;25;20542;-75
2024/04/16 10:28:59;;;;;;;36.17;34.17;;;;;;;;;;5521189;25;20869;-73
2024/04/16 10:31:33;;;;;;;35.03;33.43;;;;;;;;;;5521791;25;20493;-74
2024/04/16 10:34:03;;;;;;;34.13;32.53;;;;;;;;;;5484297;26;20467;-74
2024/04/16 10:36:30;;;;;;;30.80;29.40;;;;;;;;;;5493968;26;20442;-73
2024/04/16 10:38:58;;;;;;;24.40;23.30;;;;;;;;;;5503361;25;20553;-75
2024/04/16 10:41:25;;;;;;;25.87;24.67;;;;;;;;;;5498282;26;20459;-73
2024/04/16 10:43:54;;;;;;;23.80;22.70;;;;;;;;;;5516639;25;20468;-74
2024/04/16 10:46:20;;;;;;;24.57;23.37;;;;;;;;;;5523176;25;20441;-75
2024/04/16 10:48:52;;;;;;;23.77;22.67;;;;;;;;;;5521722;25;20551;-75
2024/04/16 10:51:18;;;;;;;23.87;22.77;;;;;;;;;;5522402;25;20477;-74
2024/04/16 10:53:47;;;;;;;21.93;20.93;;;;;;;;;;5522711;25;20430;-74
2024/04/16 10:56:13;;;;;;;21.00;20.00;;;;;;;;;;5522563;25;20494;-74
2024/04/16 10:58:42;;;;;;;22.50;21.47;;;;;;;;;;5521842;25;20423;-75
2024/04/16 11:01:09;;;;;;;22.10;21.07;;;;;;;;;;5522340;25;20500;-75
2024/04/16 11:03:38;;;;;;;21.73;20.73;;;;;;;;;;5521822;25;20537;-74
2024/04/16 11:06:07;;;;;;;21.10;20.10;;;;;;;;;;5522079;25;20499;-74
2024/04/16 11:08:36;;;;;;;19.97;19.07;;;;;;;;;;5522054;25;20789;-74
2024/04/16 11:11:03;;;;;;;21.00;20.00;;;;;;;;;;5521836;25;20509;-74
2024/04/16 11:13:32;;;;;;;21.30;20.30;;;;;;;;;;5521912;25;21005;-74
2024/04/16 11:15:58;;;;;;;21.30;20.20;;;;;;;;;;5521907;25;20637;-74
2024/04/16 11:18:30;;;;;;;21.63;20.60;;;;;;;;;;5492149;26;20468;-75
2024/04/16 11:20:56;;;;;;;20.97;19.97;;;;;;;;;;5520105;25;20427;-75
2024/04/16 11:23:27;;;;;;;21.17;20.17;;;;;;;;;;5520266;25;20522;-74
2024/04/16 11:25:53;;;;;;;21.93;20.83;;;;;;;;;;5521879;25;20445;-75
2024/04/16 11:28:22;;;;;;;20.83;19.87;;;;;;;;;;5521542;25;20957;-76
2024/04/16 11:30:54;;;;;;;21.13;20.13;;;;;;;;;;5521592;25;20887;-73
2024/04/16 11:33:23;;;;;;;20.83;19.73;;;;;;;;;;5521623;25;20453;-74
2024/04/16 11:35:49;;;;;;;21.07;20.07;;;;;;;;;;5521222;25;21039;-75
2024/04/16 11:38:21;;;;;;;20.73;19.73;;;;;;;;;;5522484;25;20508;-74
2024/04/16 11:40:49;;;;;;;21.10;20.17;;;;;;;;;;5524930;25;20459;-75
2024/04/16 11:43:18;;;;;;;22.20;21.20;;;;;;;;;;5526917;25;20957;-74
2024/04/16 11:45:45;;;;;;;21.67;20.67;;;;;;;;;;5524815;25;20455;-74
2024/04/16 11:48:14;;;;;;;21.57;20.57;;;;;;;;;;5524110;25;20560;-74
2024/04/16 11:50:41;;;;;;;22.10;21.10;;;;;;;;;;5525515;25;20494;-75
2024/04/16 11:53:10;;;;;;;20.90;20.00;;;;;;;;;;5522457;25;20466;-74
2024/04/16 11:55:36;;;;;;;19.13;18.33;;;;;;;;;;5522489;26;20519;-74
2024/04/16 11:58:09;;;;;;;19.10;18.20;;;;;;;;;;5522417;26;20461;-75
2024/04/16 12:00:35;;;;;;;18.77;17.77;;;;;;;;;;5523191;25;20852;-74
2024/04/16 12:03:04;;;;;;;18.40;17.60;;;;;;;;;;5522373;25;20455;-75
2024/04/16 12:05:30;;;;;;;18.37;17.47;;;;;;;;;;5523694;26;20502;-74
2024/04/16 12:07:58;;;;;;;18.40;17.50;;;;;;;;;;5523963;26;20446;-74
2024/04/16 12:10:24;;;;;;;18.90;17.97;;;;;;;;;;5523756;26;20943;-74
2024/04/16 12:12:53;;;;;;;19.40;18.50;;;;;;;;;;5524799;25;20454;-74
2024/04/16 12:15:23;;;;;;;18.47;17.60;;;;;;;;;;5525360;26;20508;-75
2024/04/16 12:17:51;;;;;;;18.63;17.63;;;;;;;;;;5525082;26;20466;-75
2024/04/16 12:20:17;;;;;;;18.70;17.80;;;;;;;;;;5524247;26;20426;-74
2024/04/16 12:22:46;;;;;;;18.87;17.97;;;;;;;;;;5524245;25;20829;-75
2024/04/16 12:25:12;;;;;;;18.67;17.77;;;;;;;;;;5524565;25;20469;-74
2024/04/16 12:27:41;;;;;;;18.53;17.63;;;;;;;;;;5525077;25;20462;-74
2024/04/16 12:30:07;;;;;;;18.90;17.90;;;;;;;;;;5522342;25;20473;-74
2024/04/16 12:32:38;;;;;;;18.67;17.77;;;;;;;;;;5523168;25;20577;-74
2024/04/16 12:35:08;;;;;;;19.17;18.17;;;;;;;;;;5523787;25;20499;-74
2024/04/16 12:37:37;;;;;;;19.27;18.27;;;;;;;;;;5524226;25;20446;-75
2024/04/16 12:40:03;;;;;;;19.30;18.33;;;;;;;;;;5523410;25;20443;-74
2024/04/16 12:42:32;;;;;;;20.53;19.43;;;;;;;;;;5523220;25;20489;-74
2024/04/16 12:44:58;;;;;;;19.00;18.00;;;;;;;;;;5522360;25;20457;-74
2024/04/16 12:47:27;;;;;;;18.83;17.93;;;;;;;;;;5523464;25;20916;-74
2024/04/16 12:49:56;;;;;;;18.27;17.37;;;;;;;;;;5520527;25;20510;-76
2024/04/16 12:52:25;;;;;;;19.37;18.27;;;;;;;;;;5521889;25;20581;-74
2024/04/16 12:54:51;;;;;;;19.80;18.80;;;;;;;;;;5523325;25;20481;-74
2024/04/16 12:57:20;;;;;;;19.30;18.30;;;;;;;;;;5523205;25;20436;-74
2024/04/16 12:59:46;;;;;;;19.40;18.40;;;;;;;;;;5522095;25;20462;-73
2024/04/16 13:02:16;;;;;;;19.83;18.77;;;;;;;;;;5522943;25;20455;-74
2024/04/16 13:04:42;;;;;;;19.23;18.23;;;;;;;;;;5523392;26;20482;-74
2024/04/16 13:07:13;;;;;;;19.13;18.03;;;;;;;;;;5523555;26;20447;-74
2024/04/16 13:09:39;;;;;;;19.63;18.63;;;;;;;;;;5523435;26;20554;-75
2024/04/16 13:12:10;;;;;;;18.53;17.53;;;;;;;;;;5523025;25;20501;-74
2024/04/16 13:14:36;;;;;;;18.63;17.63;;;;;;;;;;5523238;25;20912;-75
2024/04/16 13:17:05;;;;;;;18.60;17.70;;;;;;;;;;5524043;26;20463;-74
2024/04/16 13:19:32;;;;;;;18.80;17.90;;;;;;;;;;5523524;25;20437;-73
2024/04/16 13:22:01;;;;;;;19.23;18.13;;;;;;;;;;5524109;25;20474;-74
2024/04/16 13:24:31;;;;;;;19.37;18.27;;;;;;;;;;5523088;25;20496;-75
2024/04/16 13:27:00;;;;;;;20.40;19.30;;;;;;;;;;5523874;26;20458;-74
2024/04/16 13:29:26;;;;;;;19.67;18.67;;;;;;;;;;5523487;26;20461;-74
2024/04/16 13:31:55;;;;;;;20.83;19.43;;;;;;;;;;5524130;25;20475;-73
2024/04/16 13:34:21;;;;;;;19.60;18.50;;;;;;;;;;5524056;26;20507;-75
2024/04/16 13:36:50;;;;;;;19.50;18.50;;;;;;;;;;5523943;26;20778;-74
2024/04/16 13:39:17;;;;;;;20.07;19.07;;;;;;;;;;5523284;26;20438;-74
2024/04/16 13:41:48;;;;;;;19.33;18.33;;;;;;;;;;5523740;25;20494;-74
2024/04/16 13:44:14;;;;;;;19.10;18.20;;;;;;;;;;5523406;25;20491;-74
2024/04/16 13:46:45;;;;;;;19.77;18.77;;;;;;;;;;5524884;26;20469;-76
2024/04/16 13:49:11;;;;;;;20.10;19.00;;;;;;;;;;5523854;26;20466;-74
2024/04/16 13:51:40;;;;;;;19.47;18.47;;;;;;;;;;5523654;25;20465;-74
2024/04/16 13:54:06;;;;;;;20.03;18.87;;;;;;;;;;5522971;25;20483;-74
2024/04/16 13:56:34;;;;;;;20.93;19.70;;;;;;;;;;5522943;26;20526;-75
2024/04/16 13:59:04;;;;;;;22.03;20.93;;;;;;;;;;5522658;26;20451;-74
2024/04/16 14:01:33;;;;;;;20.60;19.50;;;;;;;;;;5521646;25;20434;-75
2024/04/16 14:03:59;;;;;;;22.80;21.60;;;;;;;;;;5522679;25;20446;-75
2024/04/16 14:06:29;;;;;;;21.20;20.20;;;;;;;;;;5521234;26;21018;-75
2024/04/16 14:08:57;;;;;;;20.40;19.40;;;;;;;;;;5522642;26;20475;-74
2024/04/16 14:11:25;;;;;;;20.40;19.30;;;;;;;;;;5516094;25;21164;-74
2024/04/16 14:13:52;;;;;;;20.40;19.40;;;;;;;;;;5486049;26;20456;-75
2024/04/16 14:16:23;;;;;;;20.80;19.80;;;;;;;;;;5486218;26;20467;-76
2024/04/16 14:18:50;;;;;;;20.63;19.53;;;;;;;;;;5485572;26;20956;-75
2024/04/16 14:21:19;;;;;;;21.17;20.07;;;;;;;;;;5486425;26;20576;-75
2024/04/16 14:23:45;;;;;;;20.70;19.70;;;;;;;;;;5486242;26;20524;-75